createdAt,value
2018-06-03T00:01:42.112Z,3.47
2018-06-03T00:04:08.963Z,4.07
2018-06-03T00:06:35.708Z,4.00
2018-06-03T00:09:02.658Z,4.00
2018-06-03T00:11:29.429Z,4.10
2018-06-03T00:13:56.356Z,3.93
2018-06-03T00:16:23.451Z,3.93
2018-06-03T00:18:50.360Z,4.17
2018-06-03T00:21:30.105Z,4.27
2018-06-03T00:23:56.951Z,4.17
2018-06-03T00:26:23.904Z,4.30
2018-06-03T00:28:50.854Z,4.40
2018-06-03T00:31:17.806Z,4.33
2018-06-03T00:33:44.654Z,3.80
2018-06-03T00:36:24.400Z,3.97
2018-06-03T00:38:51.555Z,4.10
2018-06-03T00:41:18.400Z,3.70
2018-06-03T00:43:45.249Z,3.97
2018-06-03T00:46:12.199Z,3.93
2018-06-03T00:48:39.153Z,4.27
2018-06-03T00:51:06.001Z,4.37
2018-06-03T00:53:32.950Z,4.63
2018-06-03T00:55:59.802Z,4.40
2018-06-03T00:58:26.649Z,4.43
2018-06-03T01:00:53.393Z,4.50
2018-06-03T01:03:20.347Z,4.63
2018-06-03T01:05:47.196Z,4.27
2018-06-03T01:08:14.043Z,4.60
2018-06-03T01:10:40.996Z,4.70
2018-06-03T01:13:08.152Z,4.60
2018-06-03T01:15:35.100Z,5.20
2018-06-03T01:18:02.054Z,4.90
2018-06-03T01:20:28.900Z,4.70
2018-06-03T01:22:55.850Z,4.47
2018-06-03T01:25:23.007Z,4.83
2018-06-03T01:27:49.959Z,4.50
2018-06-03T01:30:16.911Z,4.70
2018-06-03T01:32:43.859Z,4.93
2018-06-03T01:35:10.815Z,4.43
2018-06-03T01:37:37.865Z,4.73
2018-06-03T01:40:04.715Z,4.67
2018-06-03T01:42:31.665Z,5.03
2018-06-03T01:44:58.821Z,4.97
2018-06-03T01:47:25.771Z,4.77
2018-06-03T01:49:52.523Z,4.70
2018-06-03T01:52:19.468Z,5.20
2018-06-03T01:54:46.316Z,4.80
2018-06-03T01:57:13.167Z,4.37
2018-06-03T01:59:40.013Z,4.33
2018-06-03T02:02:06.964Z,4.67
2018-06-03T02:04:33.813Z,3.93
2018-06-03T02:07:00.559Z,4.40
2018-06-03T02:09:27.613Z,4.60
2018-06-03T02:11:54.463Z,4.37
2018-06-03T02:14:21.309Z,4.00
2018-06-03T02:16:48.059Z,6.60
2018-06-03T02:19:14.911Z,4.50
2018-06-03T02:21:42.162Z,4.17
2018-06-03T02:24:09.525Z,4.30
2018-06-03T02:26:36.476Z,4.80
2018-06-03T02:29:03.426Z,4.37
2018-06-03T02:31:30.377Z,4.20
2018-06-03T02:33:57.327Z,4.83
2018-06-03T02:36:24.280Z,4.97
2018-06-03T02:38:51.872Z,5.00
2018-06-03T02:41:18.695Z,4.70
2018-06-03T02:43:45.646Z,4.87
2018-06-03T02:46:12.492Z,5.03
2018-06-03T02:48:39.444Z,4.80
2018-06-03T02:51:06.393Z,4.33
2018-06-03T02:53:33.347Z,4.60
2018-06-03T02:56:00.299Z,4.80
2018-06-03T02:58:27.249Z,4.47
2018-06-03T03:00:54.094Z,4.50
2018-06-03T03:03:20.945Z,4.77
2018-06-03T03:05:47.898Z,3.97
2018-06-03T03:08:14.847Z,4.13
2018-06-03T03:10:41.696Z,4.00
2018-06-03T03:13:08.546Z,4.07
2018-06-03T03:15:35.495Z,4.40
2018-06-03T03:18:02.284Z,4.37
2018-06-03T03:20:30.623Z,4.40
2018-06-03T03:22:57.574Z,4.80
2018-06-03T03:25:24.424Z,4.57
2018-06-03T03:27:51.172Z,4.80
2018-06-03T03:30:19.247Z,3.90
2018-06-03T03:32:46.200Z,4.53
2018-06-03T03:35:13.047Z,4.43
2018-06-03T03:37:39.897Z,4.50
2018-06-03T03:40:08.484Z,4.83
2018-06-03T03:42:35.754Z,4.90
2018-06-03T03:45:03.340Z,5.00
2018-06-03T03:47:31.015Z,4.97
2018-06-03T03:49:57.814Z,4.73
2018-06-03T03:52:24.726Z,4.87
2018-06-03T03:54:52.148Z,5.17
2018-06-03T03:57:19.023Z,4.80
2018-06-03T03:59:45.832Z,4.90
2018-06-03T04:02:12.784Z,5.37
2018-06-03T04:04:40.756Z,4.73
2018-06-03T04:07:09.162Z,4.93
2018-06-03T04:09:37.992Z,4.67
2018-06-03T04:12:05.196Z,4.70
2018-06-03T04:14:32.518Z,4.80
2018-06-03T04:16:59.604Z,4.00
2018-06-03T04:19:26.556Z,4.37
2018-06-03T04:21:53.363Z,4.50
2018-06-03T04:24:20.834Z,4.40
2018-06-03T04:26:48.310Z,4.17
2018-06-03T04:29:15.112Z,4.27
2018-06-03T04:31:42.635Z,3.90
2018-06-03T04:34:09.453Z,4.10
2018-06-03T04:36:36.953Z,3.40
2018-06-03T04:39:04.008Z,3.62
2018-06-03T04:44:03.935Z,3.30
2018-06-03T04:46:30.783Z,3.47
2018-06-03T04:48:58.040Z,3.10
2018-06-03T04:51:25.301Z,3.30
2018-06-03T04:53:53.072Z,3.15
2018-06-03T04:56:19.918Z,2.95
2018-06-03T04:58:47.381Z,2.90
2018-06-03T05:01:14.151Z,2.90
2018-06-03T05:03:41.284Z,2.83
2018-06-03T05:06:08.825Z,2.80
2018-06-03T05:08:35.698Z,3.10
2018-06-03T05:11:02.961Z,3.10
2018-06-03T05:13:30.214Z,3.20
2018-06-03T05:15:57.677Z,3.35
2018-06-03T05:18:25.542Z,2.67
2018-06-03T05:20:52.709Z,3.15
2018-06-03T05:23:19.657Z,3.00
2018-06-03T05:25:46.919Z,3.22
2018-06-03T05:28:13.766Z,3.10
2018-06-03T05:30:41.025Z,3.37
2018-06-03T05:33:09.612Z,3.20
2018-06-03T05:35:37.319Z,3.10
2018-06-03T05:38:04.144Z,3.15
2018-06-03T05:40:31.019Z,3.28
2018-06-03T05:42:57.838Z,3.17
2018-06-03T05:45:24.781Z,3.35
2018-06-03T05:47:52.568Z,3.47
2018-06-03T05:50:20.421Z,3.30
2018-06-03T05:52:48.547Z,3.53
2018-06-03T05:55:17.439Z,3.10
2018-06-03T05:57:44.651Z,3.25
2018-06-03T06:00:11.500Z,3.08
2018-06-03T06:02:38.863Z,3.37
2018-06-03T06:05:06.838Z,2.70
2018-06-03T06:07:33.683Z,2.80
2018-06-03T06:10:00.845Z,2.60
2018-06-03T06:12:27.689Z,2.25
2018-06-03T06:14:54.845Z,2.30
2018-06-03T06:17:22.004Z,2.10
2018-06-03T06:19:49.350Z,2.40
2018-06-03T06:22:16.623Z,2.25
2018-06-03T06:24:43.573Z,1.90
2018-06-03T06:27:10.728Z,2.10
2018-06-03T06:29:37.675Z,2.10
2018-06-03T06:32:05.040Z,2.17
2018-06-03T06:34:31.886Z,1.95
2018-06-03T06:36:58.839Z,1.90
2018-06-03T06:39:26.612Z,1.90
2018-06-03T06:41:53.622Z,1.83
2018-06-03T06:44:21.231Z,1.87
2018-06-03T06:46:48.596Z,2.10
2018-06-03T06:49:16.301Z,2.10
2018-06-03T06:51:43.164Z,1.77
2018-06-03T06:54:10.809Z,1.90
2018-06-03T06:56:37.936Z,2.40
2018-06-03T06:59:04.963Z,1.98
2018-06-03T07:01:32.144Z,2.50
2018-06-03T07:03:58.892Z,2.28
2018-06-03T07:06:25.844Z,2.37
2018-06-03T07:08:52.632Z,2.40
2018-06-03T07:11:19.413Z,2.60
2018-06-03T07:13:46.528Z,2.70
2018-06-03T07:16:15.286Z,2.70
2018-06-03T07:18:42.238Z,3.10
2018-06-03T07:21:09.417Z,3.12
2018-06-03T07:23:37.065Z,3.00
2018-06-03T07:26:04.838Z,3.22
2018-06-03T07:28:31.683Z,2.92
2018-06-03T07:30:58.698Z,3.15
2018-06-03T07:33:26.751Z,3.22
2018-06-03T07:35:53.889Z,3.35
2018-06-03T07:38:20.711Z,3.22
2018-06-03T07:40:48.217Z,3.00
2018-06-03T07:43:16.668Z,2.95
2018-06-03T07:45:43.927Z,2.85
2018-06-03T07:48:11.086Z,3.10
2018-06-03T07:50:38.548Z,2.97
2018-06-03T07:53:05.439Z,3.20
2018-06-03T07:55:32.241Z,3.10
2018-06-03T07:57:59.220Z,2.72
2018-06-03T08:00:26.552Z,2.47
2018-06-03T08:02:53.911Z,2.78
2018-06-03T08:05:21.172Z,2.60
2018-06-03T08:07:48.633Z,2.58
2018-06-03T08:10:15.428Z,2.50
2018-06-03T08:12:42.944Z,2.47
2018-06-03T08:15:10.614Z,2.70
2018-06-03T08:17:37.667Z,2.55
2018-06-03T08:20:04.516Z,2.85
2018-06-03T08:22:32.696Z,2.53
2018-06-03T08:25:00.159Z,2.60
2018-06-03T08:27:27.109Z,2.65
2018-06-03T08:29:53.962Z,2.50
2018-06-03T08:32:21.840Z,2.25
2018-06-03T08:34:48.780Z,2.40
2018-06-03T08:37:15.885Z,2.50
2018-06-03T08:39:44.115Z,2.30
2018-06-03T08:42:12.500Z,1.87
2018-06-03T08:44:40.270Z,1.73
2018-06-03T08:47:07.166Z,1.60
2018-06-03T08:49:34.889Z,1.48
2018-06-03T08:52:02.257Z,1.73
2018-06-03T08:54:29.090Z,1.52
2018-06-03T08:56:56.152Z,1.37
2018-06-03T08:59:23.614Z,1.40
2018-06-03T09:01:51.177Z,1.30
2018-06-03T09:04:18.539Z,1.58
2018-06-03T09:06:46.310Z,1.58
2018-06-03T09:09:13.345Z,1.17
2018-06-03T09:11:40.421Z,1.75
2018-06-03T09:14:07.675Z,1.42
2018-06-03T09:16:36.343Z,1.62
2018-06-03T09:19:03.434Z,1.30
2018-06-03T09:21:34.021Z,1.40
2018-06-03T09:24:01.900Z,1.42
2018-06-03T09:26:29.083Z,1.60
2018-06-03T09:28:56.031Z,1.40
2018-06-03T09:31:23.293Z,1.45
2018-06-03T09:33:50.330Z,1.42
2018-06-03T09:36:18.935Z,1.70
2018-06-03T09:38:46.706Z,1.50
2018-06-03T09:41:13.864Z,1.58
2018-06-03T09:43:41.119Z,1.20
2018-06-03T09:46:07.968Z,1.40
2018-06-03T09:48:35.332Z,1.40
2018-06-03T09:51:03.013Z,1.40
2018-06-03T09:53:29.818Z,1.70
2018-06-03T09:55:56.840Z,1.42
2018-06-03T09:58:23.693Z,1.50
2018-06-03T10:00:50.790Z,1.75
2018-06-03T10:03:18.167Z,1.60
2018-06-03T10:05:45.112Z,1.50
2018-06-03T10:08:11.935Z,1.75
2018-06-03T10:10:39.118Z,1.50
2018-06-03T10:13:06.477Z,1.50
2018-06-03T10:15:33.429Z,1.60
2018-06-03T10:18:00.467Z,1.75
2018-06-03T10:20:27.845Z,1.83
2018-06-03T10:22:54.693Z,1.30
2018-06-03T10:25:21.644Z,1.62
2018-06-03T10:27:48.488Z,1.50
2018-06-03T10:30:15.858Z,1.52
2018-06-03T10:32:44.749Z,1.70
2018-06-03T10:35:12.009Z,1.70
2018-06-03T10:37:38.857Z,1.35
2018-06-03T10:40:07.549Z,2.10
2018-06-03T10:42:36.135Z,1.75
2018-06-03T10:45:03.213Z,1.48
2018-06-03T10:47:29.945Z,3.22
2018-06-03T10:49:56.999Z,1.60
2018-06-03T10:52:24.633Z,1.40
2018-06-03T10:54:51.718Z,1.33
2018-06-03T10:57:18.665Z,1.80
2018-06-03T10:59:45.657Z,1.80
2018-06-03T11:02:12.529Z,1.80
2018-06-03T11:04:40.005Z,4.05
2018-06-03T11:07:07.029Z,1.60
2018-06-03T11:09:33.848Z,1.80
2018-06-03T11:12:00.846Z,1.70
2018-06-03T11:14:28.623Z,2.10
2018-06-03T11:16:55.705Z,1.80
2018-06-03T11:19:22.851Z,1.70
2018-06-03T11:21:50.225Z,1.90
2018-06-03T11:24:17.366Z,3.30
2018-06-03T11:26:45.042Z,1.70
2018-06-03T11:29:12.925Z,1.42
2018-06-03T11:31:39.871Z,1.45
2018-06-03T11:34:07.233Z,1.50
2018-06-03T11:36:34.595Z,1.85
2018-06-03T11:39:01.853Z,1.85
2018-06-03T11:41:29.113Z,1.85
2018-06-03T11:43:56.881Z,1.98
2018-06-03T11:46:24.139Z,1.70
2018-06-03T11:48:51.602Z,2.05
2018-06-03T11:51:18.365Z,1.87
2018-06-03T11:53:45.505Z,2.03
2018-06-03T11:56:14.095Z,2.00
2018-06-03T11:58:48.927Z,2.00
2018-06-03T12:01:17.000Z,1.80
2018-06-03T12:03:43.735Z,1.83
2018-06-03T12:06:11.106Z,2.08
2018-06-03T12:08:38.064Z,1.87
2018-06-03T12:11:06.136Z,2.10
2018-06-03T12:13:33.294Z,2.03
2018-06-03T12:16:00.243Z,2.03
2018-06-03T12:18:27.442Z,1.83
2018-06-03T12:20:54.657Z,1.87
2018-06-03T12:23:21.507Z,2.03
2018-06-03T12:25:48.357Z,1.98
2018-06-03T12:28:16.433Z,1.98
2018-06-03T12:30:43.280Z,2.12
2018-06-03T12:33:11.050Z,2.10
2018-06-03T12:35:38.821Z,1.80
2018-06-03T12:38:07.614Z,2.03
2018-06-03T12:40:36.406Z,2.05
2018-06-03T12:43:03.436Z,1.90
2018-06-03T12:45:30.180Z,2.30
2018-06-03T12:47:57.953Z,2.42
2018-06-03T12:50:25.229Z,2.42
2018-06-03T12:52:52.291Z,2.20
2018-06-03T12:55:19.747Z,2.12
2018-06-03T12:57:46.911Z,2.00
2018-06-03T13:00:14.170Z,2.12
2018-06-03T13:02:41.016Z,2.60
2018-06-03T13:05:07.867Z,2.70
2018-06-03T13:07:35.122Z,3.92
2018-06-03T13:10:02.179Z,1.62
2018-06-03T13:12:29.541Z,2.05
2018-06-03T13:14:57.309Z,2.08
2018-06-03T13:17:25.024Z,4.30
2018-06-03T13:19:52.846Z,2.45
2018-06-03T13:22:20.309Z,2.00
2018-06-03T13:24:47.568Z,2.50
2018-06-03T13:27:14.395Z,1.73
2018-06-03T13:29:41.236Z,2.45
2018-06-03T13:32:08.802Z,2.10
2018-06-03T13:34:36.705Z,2.22
2018-06-03T13:37:03.964Z,2.10
2018-06-03T13:39:31.629Z,2.40
2018-06-03T13:41:58.991Z,1.90
2018-06-03T13:44:26.147Z,2.87
2018-06-03T13:46:53.180Z,2.15
2018-06-03T13:49:20.765Z,1.77
2018-06-03T13:51:47.692Z,2.10
2018-06-03T13:54:15.282Z,1.85
2018-06-03T13:56:42.337Z,2.08
2018-06-03T13:59:09.699Z,2.08
2018-06-03T14:01:36.649Z,3.45
2018-06-03T14:04:04.421Z,2.28
2018-06-03T14:06:32.397Z,2.50
2018-06-03T14:09:00.287Z,2.33
2018-06-03T14:11:27.526Z,2.45
2018-06-03T14:13:54.577Z,2.05
2018-06-03T14:16:21.630Z,2.30
2018-06-03T14:18:48.693Z,2.20
2018-06-03T14:21:15.533Z,2.37
2018-06-03T14:23:42.481Z,2.45
2018-06-03T14:28:41.096Z,2.22
2018-06-03T14:31:09.989Z,2.58
2018-06-03T14:33:37.533Z,2.80
2018-06-03T14:36:04.604Z,2.67
2018-06-03T14:38:31.969Z,2.87
2018-06-03T14:40:59.126Z,2.75
2018-06-03T14:43:26.281Z,2.72
2018-06-03T14:45:53.642Z,2.95
2018-06-03T14:48:20.901Z,2.47
2018-06-03T14:50:48.292Z,2.20
2018-06-03T14:53:15.508Z,2.60
2018-06-03T14:55:42.371Z,2.45
2018-06-03T14:58:13.002Z,2.58
2018-06-03T15:00:41.552Z,2.28
2018-06-03T15:03:08.625Z,2.60
2018-06-03T15:05:35.445Z,2.50
2018-06-03T15:10:34.248Z,2.72
2018-06-03T15:13:01.007Z,2.97
2018-06-03T15:15:27.823Z,2.70
2018-06-03T15:17:55.523Z,2.87
2018-06-03T15:20:24.880Z,2.72
2018-06-03T15:22:52.827Z,2.60
2018-06-03T15:25:20.198Z,3.00
2018-06-03T15:30:20.145Z,2.90
2018-06-03T15:32:49.424Z,2.60
2018-06-03T15:35:16.617Z,2.70
2018-06-03T15:37:43.778Z,2.42
2018-06-03T15:40:11.034Z,2.65
2018-06-03T15:42:37.810Z,2.83
2018-06-03T15:45:07.240Z,2.75
2018-06-03T15:47:35.780Z,3.37
2018-06-03T15:50:03.041Z,2.55
2018-06-03T15:52:30.608Z,2.67
2018-06-03T15:54:58.158Z,3.00
2018-06-03T15:57:25.131Z,2.42
2018-06-03T15:59:53.003Z,3.00
2018-06-03T16:02:20.292Z,2.85
2018-06-03T16:04:48.547Z,2.50
2018-06-03T16:07:16.219Z,2.62
2018-06-03T16:09:43.785Z,2.70
2018-06-03T16:12:11.439Z,2.65
2018-06-03T16:14:39.532Z,2.30
2018-06-03T16:17:07.588Z,2.70
2018-06-03T16:19:35.513Z,2.80
2018-06-03T16:22:02.741Z,2.50
2018-06-03T16:24:30.612Z,33.67
2018-06-03T16:26:57.565Z,20.52
2018-06-03T16:29:24.917Z,16.85
2018-06-03T16:31:52.067Z,6.28
2018-06-03T16:34:19.122Z,10.90
2018-06-03T16:36:46.484Z,8.80
2018-06-03T16:39:13.734Z,6.28
2018-06-03T16:41:40.580Z,4.37
2018-06-03T16:44:07.735Z,3.78
2018-06-03T16:46:34.896Z,3.67
2018-06-03T16:49:01.946Z,3.97
2018-06-03T16:51:29.203Z,4.43
2018-06-03T16:53:56.869Z,3.67
2018-06-03T16:56:23.821Z,5.60
2018-06-03T16:58:52.431Z,4.47
2018-06-03T17:01:19.494Z,3.53
2018-06-03T18:54:31.048Z,3.80
2018-06-03T18:56:58.510Z,4.15
2018-06-03T18:59:27.776Z,3.90
2018-06-03T19:01:54.968Z,4.03
2018-06-03T19:04:22.125Z,4.47
2018-06-03T19:06:49.896Z,4.68
2018-06-03T19:09:16.915Z,3.95
2018-06-03T19:11:44.212Z,4.30
2018-06-03T19:14:11.569Z,4.35
2018-06-03T19:16:38.415Z,4.35
2018-06-03T19:19:05.675Z,4.22
2018-06-03T19:21:32.939Z,3.87
2018-06-03T19:24:00.192Z,4.20
2018-06-03T19:26:28.111Z,4.45
2018-06-03T19:28:55.245Z,4.20
2018-06-03T19:31:22.170Z,4.95
2018-06-03T19:33:49.431Z,4.13
2018-06-03T19:36:17.200Z,4.50
2018-06-03T19:38:45.984Z,4.30
2018-06-03T19:41:13.150Z,4.40
2018-06-03T19:43:40.100Z,4.43
2018-06-03T19:46:06.952Z,4.47
2018-06-03T19:48:34.004Z,4.07
2018-06-03T19:51:00.955Z,4.57
2018-06-03T19:53:28.520Z,4.07
2018-06-03T19:55:55.470Z,5.27
2018-06-03T19:58:22.729Z,4.90
2018-06-03T20:00:50.102Z,4.73
2018-06-03T20:03:18.882Z,5.43
2018-06-03T20:05:46.449Z,4.43
2018-06-03T20:08:14.219Z,4.80
2018-06-03T20:10:42.512Z,5.23
2018-06-03T20:13:09.861Z,4.80
2018-06-03T20:15:36.708Z,4.80
2018-06-03T20:18:04.377Z,5.10
2018-06-03T20:20:31.227Z,5.10
2018-06-03T20:22:58.895Z,4.87
2018-06-03T20:25:26.357Z,5.57
2018-06-03T20:27:54.024Z,5.07
2018-06-03T20:30:20.976Z,5.70
2018-06-03T20:32:47.928Z,5.53
2018-06-03T20:35:14.676Z,5.57
2018-06-03T20:37:41.931Z,5.50
2018-06-03T20:40:09.192Z,5.37
2018-06-03T20:42:36.186Z,5.63
2018-06-03T20:45:03.505Z,5.90
2018-06-03T20:47:30.863Z,5.40
2018-06-03T20:50:00.271Z,6.10
2018-06-03T20:52:28.857Z,6.03
2018-06-03T20:54:56.219Z,6.20
2018-06-03T20:57:24.085Z,6.33
2018-06-03T20:59:52.782Z,6.33
2018-06-03T21:02:20.267Z,6.27
2018-06-03T21:04:48.609Z,6.43
2018-06-03T21:07:16.095Z,6.20
2018-06-03T21:09:43.248Z,5.93
2018-06-03T21:12:10.200Z,7.00
2018-06-03T21:14:38.279Z,6.63
2018-06-03T21:17:05.535Z,6.30
2018-06-03T21:19:33.308Z,5.80
2018-06-03T21:22:01.792Z,6.37
2018-06-03T21:24:29.051Z,6.50
2018-06-03T21:26:57.026Z,6.80
2018-06-03T21:29:25.410Z,6.37
2018-06-03T21:31:53.080Z,6.80
2018-06-03T21:34:20.335Z,6.70
2018-06-03T21:36:48.356Z,6.70
2018-06-03T21:39:15.570Z,6.93
2018-06-03T21:41:43.132Z,7.17
2018-06-03T21:44:13.082Z,6.43
2018-06-03T21:46:40.108Z,7.13
2018-06-03T21:49:08.694Z,6.50
2018-06-03T21:51:35.848Z,6.83
2018-06-03T21:54:02.800Z,6.97
2018-06-03T21:56:29.959Z,6.90
2018-06-03T21:58:56.913Z,7.67
2018-06-03T22:01:23.760Z,7.17
2018-06-03T22:03:51.345Z,8.13
2018-06-03T22:06:18.285Z,7.50
2018-06-03T22:08:45.633Z,7.70
2018-06-03T22:11:12.893Z,7.30
2018-06-03T22:13:39.844Z,6.83
2018-06-03T22:16:06.900Z,7.73
2018-06-03T22:18:34.568Z,7.27
2018-06-03T22:21:01.725Z,7.43
2018-06-03T22:23:29.600Z,7.53
2018-06-03T22:25:56.750Z,8.07
2018-06-03T22:28:23.908Z,7.87
2018-06-03T22:30:51.062Z,7.20
2018-06-03T22:33:18.125Z,7.97
2018-06-03T22:35:45.988Z,8.27
2018-06-03T22:38:13.043Z,8.17
2018-06-03T22:40:40.199Z,8.10
2018-06-03T22:43:07.972Z,7.90
2018-06-03T22:45:35.126Z,8.40
2018-06-03T22:48:02.078Z,7.50
2018-06-03T22:50:29.027Z,8.43
2018-06-03T22:52:55.905Z,7.23
2018-06-03T22:55:22.931Z,8.43
2018-06-03T22:57:51.725Z,8.50
2018-06-03T23:00:20.009Z,8.23
2018-06-03T23:02:46.956Z,8.20
2018-06-03T23:05:13.712Z,8.23
2018-06-03T23:07:40.963Z,8.50
2018-06-03T23:10:07.912Z,8.10
2018-06-03T23:12:34.660Z,7.60
2018-06-03T23:15:01.920Z,8.00
2018-06-03T23:17:28.780Z,8.63
2018-06-03T23:19:57.255Z,8.73
2018-06-03T23:22:24.617Z,9.20
2018-06-03T23:24:51.977Z,8.03
2018-06-03T23:27:18.929Z,9.10
2018-06-03T23:29:45.979Z,8.60
2018-06-03T23:32:13.137Z,9.13
2018-06-03T23:34:40.498Z,9.00
2018-06-03T23:37:08.164Z,8.90
2018-06-03T23:39:35.115Z,8.30
2018-06-03T23:42:03.499Z,9.00
2018-06-03T23:44:31.166Z,9.17
2018-06-03T23:46:58.053Z,9.53
2018-06-03T23:49:25.380Z,9.13
2018-06-03T23:54:25.624Z,9.70
2018-06-03T23:56:54.215Z,10.10
2018-06-03T23:59:21.062Z,10.13
